KFMN

Four Corners Regional Airport

Farmington, New Mexico, USA
METAR KFMN 231053Z AUTO 10007KT 10SM FEW070 SCT080 11/07 A3017 RMK AO2 SLP176 T01060067
Observed Flight Rules
Oct-23 @ 10:53 UTC (56 minutes ago) Visual Flight Rules
Wind Visibility Clouds
100° at 7 knots 10 miles
  • Few at 7,000' AGL
  • Scattered at 8,000' AGL
Temperatures Readings
Current 11°C / 52°F
Dewpoint 7°C / 45°F
Humidity 77%
Altimeter 30.17" Hg
Pressure 1017.6 hPa
Elevation 1685
METAR KFMN 231053Z AUTO 10007KT 10SM FEW070 SCT080 11/07 A3017 RMK AO2 SLP176 T01060067
Observed Flight Rules
Oct-23 @ 10:53 UTC
(56 minutes ago)
VFR
Wind Visibility
100° at 7 knots 10 miles
Clouds
  • Few at 7,000' AGL
  • Scattered at 8,000' AGL
Temperature Dewpoint
11°C / 52°F 7°C / 45°F
Humidity Altimeter Pressure
77% 30.17" Hg 1017.6 hPa